MET'MAP v2.0
soon released !

Expected late october,
this new version will be
more efficient, smarter,
and hosted on a brand new
server x3 powerfull...
...and still free !


Not compatible ?
Try the mobile version !

LOG IN : | Subscribe | Disclaimer | Who is Orbifly ? |
ICAO code :

TAF - ETIC Grafenwohr Army Air Field - 13 Dec 2019 09:18 UTC
Data Sources :     NOAA   


- Airport Elevation : 1363 ft
- No reported NOTAMs.


ETIC - Grafenwohr Army Air Field

Latest METAR recorded : 2015/08/11 07:58 ETIC 110758Z AUTO M 9999 CLR 24/17 A3000 RMK AO2 SLP140 T02430166 $
TAF TAF ETIC
Valid from the 13 at 06:00 until the 14 at 12:00 UTC


130610Z 1306/1412 16004KT 9999 OVC011 620117 QNH2905INS
BECMG 1312/1313 19010G15KT 8000 -SN OVC010 620105 QNH2896INS
TEMPO 1312/1316 27020G25KT
BECMG 1316/1317 VRB06KT 8000 BR OVC009 620095 QNH2900INS
TEMPO 1317/1321 8000 -SN
BECMG 1403/1404 VRB06KT 8000 -SHRA OVC010 620105 QNH2923INS TX03/1318Z TNM02/1307Z

Source NOAA


MET'MAP, your aeronautical weather chart ! - Copyright ORBIFLY December 2007

Programming & Development : Alexandra Zaïnal
Co-Developer : Marc-Olivier Méhu
Technical & hardware support : Manuel Goepfert
Concept & Financing : Baudouin d'Aumeries